createdAt,value
2023-02-26T00:00:42.496Z,1.50
2023-02-26T00:03:08.781Z,1.27
2023-02-26T00:05:35.014Z,1.07
2023-02-26T00:08:01.338Z,1.37
2023-02-26T00:10:27.626Z,1.17
2023-02-26T00:12:54.010Z,1.33
2023-02-26T00:15:20.796Z,1.40
2023-02-26T00:18:02.245Z,1.53
2023-02-26T00:20:28.710Z,1.80
2023-02-26T00:22:55.074Z,1.20
2023-02-26T00:25:21.366Z,1.50
2023-02-26T00:27:47.951Z,1.47
2023-02-26T00:30:14.338Z,1.27
2023-02-26T00:32:40.766Z,1.43
2023-02-26T00:35:08.283Z,1.30
2023-02-26T00:37:34.561Z,1.30
2023-02-26T00:40:08.882Z,1.37
2023-02-26T00:42:35.744Z,1.47
2023-02-26T00:45:02.529Z,1.30
2023-02-26T00:47:36.034Z,1.40
2023-02-26T00:50:22.137Z,1.27
2023-02-26T00:52:54.237Z,1.30
2023-02-26T00:55:21.103Z,1.23
2023-02-26T00:57:47.341Z,1.30
2023-02-26T01:00:13.832Z,1.50
2023-02-26T01:02:40.171Z,1.37
2023-02-26T01:05:06.860Z,0.93
2023-02-26T01:07:38.666Z,1.40
2023-02-26T01:10:05.284Z,1.13
2023-02-26T01:12:31.593Z,1.30
2023-02-26T01:14:58.077Z,1.60
2023-02-26T01:17:33.741Z,0.87
2023-02-26T01:20:05.877Z,1.20
2023-02-26T01:22:39.144Z,1.40
2023-02-26T01:25:13.341Z,1.10
2023-02-26T01:27:39.946Z,1.27
2023-02-26T01:30:07.153Z,1.20
2023-02-26T01:32:43.010Z,1.20
2023-02-26T01:35:24.179Z,1.37
2023-02-26T01:37:55.900Z,1.07
2023-02-26T01:40:34.502Z,1.10
2023-02-26T01:43:06.612Z,1.23
2023-02-26T01:45:38.520Z,1.40
2023-02-26T01:48:06.673Z,1.10
2023-02-26T01:50:35.369Z,1.13
2023-02-26T01:53:16.734Z,1.10
2023-02-26T01:55:44.265Z,1.70
2023-02-26T01:58:10.700Z,1.10
2023-02-26T02:00:36.974Z,1.30
2023-02-26T02:03:04.115Z,1.20
2023-02-26T02:05:33.309Z,0.93
2023-02-26T02:08:00.019Z,1.23
2023-02-26T02:10:27.799Z,1.20
2023-02-26T02:13:03.352Z,1.17
2023-02-26T02:15:40.035Z,1.30
2023-02-26T02:18:22.241Z,1.10
2023-02-26T02:20:57.726Z,1.10
2023-02-26T02:23:31.030Z,1.20
2023-02-26T02:26:03.313Z,1.17
2023-02-26T02:28:48.616Z,1.03
2023-02-26T02:31:20.855Z,1.17
2023-02-26T02:33:50.762Z,1.20
2023-02-26T02:36:20.120Z,1.07
2023-02-26T02:38:48.860Z,1.00
2023-02-26T02:41:19.147Z,1.20
2023-02-26T02:43:46.730Z,1.17
2023-02-26T02:46:16.427Z,0.97
2023-02-26T02:48:45.543Z,1.20
2023-02-26T02:51:24.460Z,1.10
2023-02-26T02:53:53.168Z,1.03
2023-02-26T02:56:38.851Z,1.27
2023-02-26T02:59:26.063Z,1.30
2023-02-26T03:02:06.719Z,1.17
2023-02-26T03:04:33.095Z,1.37
2023-02-26T03:06:59.356Z,1.13
2023-02-26T03:09:25.729Z,1.00
2023-02-26T03:11:51.982Z,1.10
2023-02-26T03:14:18.365Z,1.00
2023-02-26T03:16:57.291Z,0.93
2023-02-26T03:19:43.809Z,1.30
2023-02-26T03:22:16.345Z,2.23
2023-02-26T03:24:49.864Z,1.13
2023-02-26T03:27:24.219Z,1.07
2023-02-26T03:29:53.228Z,1.00
2023-02-26T03:32:24.553Z,0.90
2023-02-26T03:34:54.889Z,1.60
2023-02-26T03:37:23.557Z,1.30
2023-02-26T03:39:52.388Z,1.17
2023-02-26T03:42:18.604Z,1.20
2023-02-26T03:44:53.153Z,1.10
2023-02-26T03:47:20.048Z,1.10
2023-02-26T03:49:58.212Z,1.30
2023-02-26T03:52:27.132Z,1.10
2023-02-26T03:54:57.828Z,1.10
2023-02-26T03:57:24.167Z,1.00
2023-02-26T03:59:50.435Z,1.20
2023-02-26T04:02:25.075Z,1.20
2023-02-26T04:04:57.116Z,1.00
2023-02-26T04:07:23.395Z,1.20
2023-02-26T04:09:50.565Z,1.07
2023-02-26T04:12:20.715Z,1.10
2023-02-26T04:14:46.953Z,1.00
2023-02-26T04:17:13.178Z,1.30
2023-02-26T04:19:39.400Z,1.20
2023-02-26T04:22:05.636Z,1.00
2023-02-26T04:24:31.967Z,1.17
2023-02-26T04:26:58.201Z,1.10
2023-02-26T04:29:24.470Z,0.90
2023-02-26T04:31:50.802Z,1.20
2023-02-26T04:34:17.075Z,1.40
2023-02-26T04:36:43.311Z,1.57
2023-02-26T04:39:10.714Z,1.23
2023-02-26T04:41:37.823Z,1.10
2023-02-26T04:44:04.450Z,1.17
2023-02-26T04:46:30.939Z,1.23
2023-02-26T04:48:57.234Z,1.10
2023-02-26T04:51:23.533Z,1.30
2023-02-26T04:53:49.754Z,1.03
2023-02-26T04:56:16.122Z,1.17
2023-02-26T04:58:42.350Z,1.10
2023-02-26T05:01:08.606Z,1.20
2023-02-26T05:03:34.885Z,1.20
2023-02-26T05:06:01.810Z,1.30
2023-02-26T05:08:28.317Z,1.10
2023-02-26T05:10:54.655Z,1.20
2023-02-26T05:13:20.985Z,1.17
2023-02-26T05:15:47.284Z,1.10
2023-02-26T05:18:13.538Z,1.00
2023-02-26T05:20:39.769Z,1.00
2023-02-26T05:23:06.003Z,1.07
2023-02-26T05:25:32.282Z,1.10
2023-02-26T05:27:58.507Z,1.30
2023-02-26T05:30:24.804Z,1.23
2023-02-26T05:32:51.121Z,1.20
2023-02-26T05:35:17.414Z,1.07
2023-02-26T05:37:43.708Z,1.20
2023-02-26T05:40:13.205Z,1.30
2023-02-26T05:42:39.901Z,1.27
2023-02-26T05:45:06.809Z,1.10
2023-02-26T05:47:33.978Z,1.20
2023-02-26T05:50:00.259Z,1.00
2023-02-26T05:52:26.523Z,1.00
2023-02-26T05:54:52.778Z,1.20
2023-02-26T05:57:18.998Z,1.13
2023-02-26T05:59:45.238Z,1.10
2023-02-26T06:02:11.775Z,1.30
2023-02-26T06:04:38.156Z,0.90
2023-02-26T06:07:04.398Z,1.10
2023-02-26T06:09:30.766Z,1.20
2023-02-26T06:11:57.384Z,1.10
2023-02-26T06:14:23.653Z,1.20
2023-02-26T06:16:49.915Z,0.90
2023-02-26T06:19:16.181Z,0.93
2023-02-26T06:21:42.443Z,1.17
2023-02-26T06:24:08.723Z,1.03
2023-02-26T06:26:34.986Z,1.20
2023-02-26T06:29:02.229Z,1.00
2023-02-26T06:31:28.546Z,1.20
2023-02-26T06:33:54.808Z,1.00
2023-02-26T06:36:21.057Z,1.30
2023-02-26T06:38:47.348Z,1.00
2023-02-26T06:41:13.936Z,1.07
2023-02-26T06:43:40.316Z,1.00
2023-02-26T06:46:06.664Z,1.07
2023-02-26T06:48:33.210Z,1.00
2023-02-26T06:50:59.442Z,1.10
2023-02-26T06:53:25.764Z,0.90
2023-02-26T06:55:52.776Z,1.70
2023-02-26T06:58:19.309Z,0.97
2023-02-26T07:00:46.110Z,1.10
2023-02-26T07:03:13.863Z,1.23
2023-02-26T07:05:40.474Z,1.03
2023-02-26T07:08:06.983Z,1.00
2023-02-26T07:10:33.794Z,1.23
2023-02-26T07:13:00.052Z,1.00
2023-02-26T07:15:26.462Z,1.30
2023-02-26T07:17:52.815Z,1.30
2023-02-26T07:20:19.254Z,1.13
2023-02-26T07:22:45.629Z,1.27
2023-02-26T07:25:12.803Z,0.93
2023-02-26T07:27:39.313Z,1.20
2023-02-26T07:30:06.070Z,1.23
2023-02-26T07:32:32.427Z,1.03
2023-02-26T07:34:58.715Z,1.50
2023-02-26T07:37:25.436Z,1.27
2023-02-26T07:39:52.024Z,1.20
2023-02-26T07:42:18.403Z,0.93
2023-02-26T07:44:44.912Z,1.20
2023-02-26T07:47:11.559Z,1.30
2023-02-26T07:49:37.856Z,1.13
2023-02-26T07:52:04.523Z,1.23
2023-02-26T07:54:30.843Z,1.20
2023-02-26T07:56:57.120Z,1.50
2023-02-26T07:59:23.381Z,1.20
2023-02-26T08:01:49.725Z,1.40
2023-02-26T08:04:16.058Z,1.10
2023-02-26T08:06:42.336Z,1.27
2023-02-26T08:09:08.625Z,1.40
2023-02-26T08:11:39.547Z,1.17
2023-02-26T08:14:09.023Z,1.10
2023-02-26T08:16:35.293Z,1.00
2023-02-26T08:19:01.589Z,1.27
2023-02-26T08:21:27.868Z,1.30
2023-02-26T08:23:54.222Z,1.30
2023-02-26T08:26:20.481Z,1.00
2023-02-26T08:28:47.296Z,1.00
2023-02-26T08:31:14.182Z,1.10
2023-02-26T08:33:40.632Z,1.07
2023-02-26T08:36:07.238Z,1.30
2023-02-26T08:38:34.000Z,1.10
2023-02-26T08:41:00.460Z,1.30
2023-02-26T08:43:27.132Z,1.20
2023-02-26T08:45:53.834Z,1.13
2023-02-26T08:48:20.125Z,1.20
2023-02-26T08:50:46.490Z,1.00
2023-02-26T08:53:12.769Z,1.30
2023-02-26T08:55:39.035Z,1.00
2023-02-26T08:58:05.317Z,1.90
2023-02-26T09:00:31.593Z,0.90
2023-02-26T09:02:57.884Z,1.00
2023-02-26T09:05:24.142Z,1.13
2023-02-26T09:07:50.445Z,1.13
2023-02-26T09:10:16.983Z,0.90
2023-02-26T09:12:43.600Z,1.00
2023-02-26T09:15:10.358Z,0.93
2023-02-26T09:17:36.635Z,1.00
2023-02-26T09:20:03.915Z,0.90
2023-02-26T09:22:30.161Z,1.20
2023-02-26T09:24:57.283Z,1.20
2023-02-26T09:27:23.521Z,0.80
2023-02-26T09:29:49.741Z,0.90
2023-02-26T09:32:16.065Z,1.17
2023-02-26T09:34:42.321Z,0.80
2023-02-26T09:37:09.739Z,0.80
2023-02-26T09:39:36.360Z,0.90
2023-02-26T09:42:08.284Z,0.97
2023-02-26T09:44:37.601Z,0.87
2023-02-26T09:47:24.509Z,0.93
2023-02-26T09:49:53.891Z,1.13
2023-02-26T09:52:36.262Z,0.80
2023-02-26T09:55:10.062Z,1.00
2023-02-26T09:57:37.694Z,1.07
2023-02-26T10:00:07.642Z,1.20
2023-02-26T10:02:40.138Z,0.80
2023-02-26T10:05:25.127Z,1.10
2023-02-26T10:07:54.552Z,1.10
2023-02-26T10:10:39.650Z,1.20
2023-02-26T10:13:06.380Z,0.90
2023-02-26T10:15:37.540Z,0.80
2023-02-26T10:18:06.665Z,0.90
2023-02-26T10:20:48.913Z,1.50
2023-02-26T10:23:15.117Z,1.00
2023-02-26T10:25:42.870Z,0.90
2023-02-26T10:28:09.158Z,0.83
2023-02-26T10:30:42.689Z,1.00
2023-02-26T10:33:27.750Z,0.83
2023-02-26T10:35:59.274Z,0.77
2023-02-26T10:38:28.425Z,1.00
2023-02-26T10:41:01.730Z,0.90
2023-02-26T10:43:37.710Z,1.00
2023-02-26T10:46:32.843Z,1.03
2023-02-26T10:49:17.278Z,1.00
2023-02-26T10:51:44.788Z,1.13
2023-02-26T10:54:21.054Z,0.80
2023-02-26T10:56:47.484Z,0.73
2023-02-26T10:59:15.240Z,1.10
2023-02-26T11:01:43.788Z,0.80
2023-02-26T11:04:14.662Z,1.10
2023-02-26T11:06:44.007Z,1.20
2023-02-26T11:09:22.586Z,1.07
2023-02-26T11:11:52.067Z,1.40
2023-02-26T11:14:21.712Z,1.00
2023-02-26T11:16:49.927Z,1.10
2023-02-26T11:19:16.743Z,0.90
2023-02-26T11:21:45.155Z,0.83
2023-02-26T11:24:14.070Z,1.03
2023-02-26T11:26:44.697Z,1.00
2023-02-26T11:29:14.795Z,1.10
2023-02-26T11:31:42.136Z,1.10
2023-02-26T11:34:10.401Z,1.00
2023-02-26T11:36:38.825Z,0.90
2023-02-26T11:39:07.235Z,0.90
2023-02-26T11:41:37.592Z,1.10
2023-02-26T11:44:18.599Z,1.13
2023-02-26T11:46:46.203Z,1.13
2023-02-26T11:49:14.244Z,1.30
2023-02-26T11:51:43.165Z,0.90
2023-02-26T11:54:20.335Z,1.23
2023-02-26T11:56:47.003Z,1.10
2023-02-26T11:59:25.382Z,1.20
2023-02-26T12:01:52.864Z,1.10
2023-02-26T12:04:24.162Z,0.90
2023-02-26T12:06:52.220Z,1.13
2023-02-26T12:09:18.860Z,0.90
2023-02-26T12:12:05.849Z,1.30
2023-02-26T12:14:41.352Z,1.10
2023-02-26T12:17:16.830Z,1.10
2023-02-26T12:19:43.231Z,0.73
2023-02-26T12:22:17.139Z,1.07
2023-02-26T12:24:43.346Z,0.93
2023-02-26T12:27:18.801Z,1.13
2023-02-26T12:30:03.966Z,1.30
2023-02-26T12:32:56.916Z,1.40
2023-02-26T12:35:23.163Z,1.20
2023-02-26T12:37:54.403Z,1.00
2023-02-26T12:40:30.813Z,1.07
2023-02-26T12:43:04.144Z,1.20
2023-02-26T12:45:51.425Z,1.00
2023-02-26T12:48:33.334Z,1.23
2023-02-26T12:51:05.511Z,0.90
2023-02-26T12:53:55.822Z,1.00
2023-02-26T12:56:40.243Z,0.90
2023-02-26T12:59:18.790Z,1.33
2023-02-26T13:02:08.422Z,1.00
2023-02-26T13:04:39.632Z,1.13
2023-02-26T13:07:10.229Z,1.20
2023-02-26T13:10:15.405Z,1.20
2023-02-26T13:12:55.170Z,1.20
2023-02-26T13:15:27.149Z,1.10
2023-02-26T13:17:56.209Z,1.10
2023-02-26T13:20:26.895Z,1.07
2023-02-26T13:22:56.946Z,0.90
2023-02-26T13:25:29.024Z,1.10
2023-02-26T13:27:56.535Z,0.80
2023-02-26T13:30:28.422Z,1.10
2023-02-26T13:32:56.783Z,0.90
2023-02-26T13:35:41.867Z,1.00
2023-02-26T13:38:14.586Z,1.00
2023-02-26T13:40:51.370Z,1.33
2023-02-26T13:43:34.765Z,1.07
2023-02-26T13:46:07.786Z,1.20
2023-02-26T13:48:45.131Z,1.13
2023-02-26T13:51:14.315Z,1.00
2023-02-26T13:53:40.530Z,1.30
2023-02-26T13:56:15.152Z,1.23
2023-02-26T13:58:43.201Z,1.00
2023-02-26T14:01:17.782Z,0.80
2023-02-26T14:03:51.401Z,0.70
2023-02-26T14:06:25.258Z,1.00
2023-02-26T14:08:54.038Z,0.90
2023-02-26T14:11:33.786Z,0.90
2023-02-26T14:14:22.910Z,0.80
2023-02-26T14:17:15.189Z,1.03
2023-02-26T14:19:45.628Z,1.03
2023-02-26T14:22:19.020Z,1.30
2023-02-26T14:24:51.975Z,2.00
2023-02-26T14:27:18.212Z,1.20
2023-02-26T14:29:58.197Z,1.50
2023-02-26T14:32:30.640Z,1.17
2023-02-26T14:35:00.009Z,1.13
2023-02-26T14:37:27.222Z,1.10
2023-02-26T14:40:09.000Z,1.00
2023-02-26T14:42:52.662Z,1.17
2023-02-26T14:45:37.132Z,1.30
2023-02-26T14:48:07.954Z,1.10
2023-02-26T14:50:39.396Z,0.93
2023-02-26T14:53:08.959Z,0.90
2023-02-26T14:55:41.138Z,1.10
2023-02-26T14:58:27.918Z,0.80
2023-02-26T15:01:15.924Z,1.23
2023-02-26T15:03:57.232Z,1.10
2023-02-26T15:06:35.142Z,0.70
2023-02-26T15:09:20.140Z,1.10
2023-02-26T15:12:01.758Z,1.10
2023-02-26T15:14:37.139Z,1.00
2023-02-26T15:17:21.240Z,1.10
2023-02-26T15:19:47.490Z,1.17
2023-02-26T15:22:20.622Z,0.90
2023-02-26T15:24:47.133Z,1.07
2023-02-26T15:27:16.254Z,1.00
2023-02-26T15:29:42.850Z,1.00
2023-02-26T15:32:17.454Z,1.10
2023-02-26T15:34:47.724Z,1.97
2023-02-26T15:37:26.205Z,2.70
2023-02-26T15:39:53.014Z,1.70
2023-02-26T15:42:20.659Z,1.33
2023-02-26T15:44:56.958Z,0.90
2023-02-26T15:47:23.738Z,1.10
2023-02-26T15:49:50.033Z,1.13
2023-02-26T15:52:19.132Z,1.30
2023-02-26T15:54:47.791Z,1.10
2023-02-26T15:57:14.710Z,1.40
2023-02-26T15:59:43.403Z,1.00
2023-02-26T16:02:12.318Z,1.10
2023-02-26T16:04:38.765Z,1.40
2023-02-26T16:07:05.082Z,1.10
2023-02-26T16:09:35.292Z,1.00
2023-02-26T16:12:05.109Z,0.77
2023-02-26T16:14:34.498Z,1.10
2023-02-26T16:17:01.145Z,1.47
2023-02-26T16:19:36.453Z,1.20
2023-02-26T16:22:04.872Z,1.17
2023-02-26T16:24:32.254Z,1.03
2023-02-26T16:27:06.939Z,1.40
2023-02-26T16:29:34.873Z,1.60
2023-02-26T16:32:02.071Z,1.20
2023-02-26T16:34:35.532Z,1.10
2023-02-26T16:37:22.308Z,1.00
2023-02-26T16:39:51.800Z,1.13
2023-02-26T16:42:23.036Z,1.50
2023-02-26T16:44:50.850Z,1.10
2023-02-26T16:47:18.230Z,1.10
2023-02-26T16:49:44.814Z,1.90
2023-02-26T16:52:22.318Z,1.60
2023-02-26T16:54:53.246Z,1.50
2023-02-26T16:57:22.783Z,1.17
2023-02-26T16:59:59.499Z,1.40
2023-02-26T17:02:31.609Z,1.57
2023-02-26T17:04:59.622Z,1.40
2023-02-26T17:07:27.349Z,1.40
2023-02-26T17:09:56.848Z,1.40
2023-02-26T17:12:28.466Z,1.47
2023-02-26T17:14:58.602Z,1.43
2023-02-26T17:17:25.694Z,1.27
2023-02-26T17:19:53.045Z,1.57
2023-02-26T17:22:24.214Z,1.30
2023-02-26T17:24:52.612Z,1.70
2023-02-26T17:27:29.972Z,1.50
2023-02-26T17:29:57.502Z,1.63
2023-02-26T17:32:26.760Z,1.33
2023-02-26T17:34:53.804Z,1.33
2023-02-26T17:37:20.589Z,1.50
2023-02-26T17:39:47.374Z,1.67
2023-02-26T17:42:15.309Z,1.93
2023-02-26T17:44:42.324Z,1.40
2023-02-26T17:47:19.218Z,1.53
2023-02-26T17:49:45.453Z,1.30
2023-02-26T17:52:11.750Z,1.50
2023-02-26T17:54:38.698Z,1.53
2023-02-26T17:57:05.305Z,1.10
2023-02-26T17:59:31.712Z,1.20
2023-02-26T18:01:58.012Z,1.63
2023-02-26T18:04:24.465Z,1.50
2023-02-26T18:06:50.895Z,1.37
2023-02-26T18:09:17.341Z,1.60
2023-02-26T18:11:43.584Z,1.23
2023-02-26T18:14:11.016Z,1.50
2023-02-26T18:16:40.082Z,1.40
2023-02-26T18:19:06.953Z,1.30
2023-02-26T18:21:33.474Z,1.50
2023-02-26T18:24:01.093Z,2.30
2023-02-26T18:26:30.508Z,1.80
2023-02-26T18:28:57.142Z,1.77
2023-02-26T18:31:24.689Z,1.47
2023-02-26T18:33:51.529Z,1.70
2023-02-26T18:36:29.700Z,1.80
2023-02-26T18:38:59.593Z,1.60
2023-02-26T18:41:27.091Z,1.90
2023-02-26T18:43:53.544Z,1.40
2023-02-26T18:46:19.780Z,2.37
2023-02-26T18:48:47.347Z,2.53
2023-02-26T18:51:14.035Z,2.63
2023-02-26T18:53:40.564Z,2.10
2023-02-26T18:56:06.978Z,1.80
2023-02-26T18:58:33.216Z,2.00
2023-02-26T19:00:59.526Z,2.17
2023-02-26T19:03:25.831Z,1.80
2023-02-26T19:05:56.152Z,2.30
2023-02-26T19:08:23.370Z,2.10
2023-02-26T19:10:49.598Z,2.60
2023-02-26T19:13:15.835Z,2.53
2023-02-26T19:15:42.079Z,2.27
2023-02-26T19:18:08.409Z,2.07
2023-02-26T19:20:34.652Z,1.90
2023-02-26T19:23:01.071Z,2.73
2023-02-26T19:25:29.208Z,2.53
2023-02-26T19:27:55.716Z,2.50
2023-02-26T19:30:23.197Z,2.40
2023-02-26T19:32:49.735Z,2.30
2023-02-26T19:35:16.315Z,3.20
2023-02-26T19:37:43.155Z,2.70
2023-02-26T19:40:10.904Z,2.60
2023-02-26T19:42:37.714Z,2.30
2023-02-26T19:45:04.232Z,2.63
2023-02-26T19:47:30.456Z,2.27
2023-02-26T19:49:56.782Z,2.20
2023-02-26T19:52:23.550Z,2.77
2023-02-26T19:54:49.904Z,2.40
2023-02-26T19:57:16.114Z,4.60
2023-02-26T19:59:42.474Z,3.10
2023-02-26T20:02:09.431Z,3.10
2023-02-26T20:04:35.813Z,2.63
2023-02-26T20:07:02.055Z,2.33
2023-02-26T20:09:28.352Z,2.67
2023-02-26T20:11:54.712Z,2.37
2023-02-26T20:14:20.939Z,2.80
2023-02-26T20:16:47.209Z,2.50
2023-02-26T20:19:13.472Z,2.57
2023-02-26T20:21:40.025Z,2.10
2023-02-26T20:24:06.501Z,2.17
2023-02-26T20:26:32.811Z,1.90
2023-02-26T20:28:59.183Z,2.20
2023-02-26T20:31:25.845Z,1.90
2023-02-26T20:33:52.842Z,2.30
2023-02-26T20:36:19.974Z,2.23
2023-02-26T20:38:46.358Z,2.17
2023-02-26T20:41:12.652Z,1.93
2023-02-26T20:43:38.965Z,2.60
2023-02-26T20:46:05.298Z,3.07
2023-02-26T20:48:31.928Z,2.80
2023-02-26T20:50:59.397Z,2.40
2023-02-26T20:53:25.638Z,3.13
2023-02-26T20:55:52.013Z,2.50
2023-02-26T20:58:18.236Z,2.40
2023-02-26T21:00:44.565Z,2.50
2023-02-26T21:03:10.885Z,2.93
2023-02-26T21:05:38.512Z,2.67
2023-02-26T21:08:05.147Z,3.77
2023-02-26T21:10:32.645Z,3.33
2023-02-26T21:12:59.069Z,3.10
2023-02-26T21:15:25.318Z,2.67
2023-02-26T21:17:51.553Z,2.60
2023-02-26T21:20:18.111Z,2.27
2023-02-26T21:22:47.265Z,2.47
2023-02-26T21:25:13.672Z,2.10
2023-02-26T21:27:40.322Z,2.13
2023-02-26T21:30:08.453Z,2.03
2023-02-26T21:32:34.807Z,2.30
2023-02-26T21:35:01.056Z,2.40
2023-02-26T21:37:27.492Z,2.20
2023-02-26T21:39:53.899Z,1.97
2023-02-26T21:42:20.334Z,2.07
2023-02-26T21:44:48.549Z,2.43
2023-02-26T21:47:15.499Z,2.20
2023-02-26T21:49:41.802Z,2.27
2023-02-26T21:52:08.033Z,2.07
2023-02-26T21:54:34.292Z,2.30
2023-02-26T21:57:00.561Z,2.20
2023-02-26T21:59:26.847Z,2.37
2023-02-26T22:01:53.222Z,2.60
2023-02-26T22:04:19.753Z,1.90
2023-02-26T22:06:46.161Z,2.10
2023-02-26T22:09:12.458Z,2.00
2023-02-26T22:11:38.734Z,2.57
2023-02-26T22:14:04.977Z,2.20
2023-02-26T22:16:31.408Z,2.40
2023-02-26T22:18:57.668Z,2.30
2023-02-26T22:21:24.242Z,2.70
2023-02-26T22:23:50.641Z,2.70
2023-02-26T22:26:17.214Z,3.57
2023-02-26T22:28:43.457Z,3.47
2023-02-26T22:31:09.990Z,3.13
2023-02-26T22:33:36.346Z,3.27
2023-02-26T22:36:02.732Z,3.70
2023-02-26T22:38:29.108Z,3.90
2023-02-26T22:40:55.365Z,3.60
2023-02-26T22:43:21.877Z,3.67
2023-02-26T22:45:49.723Z,3.50
2023-02-26T22:48:17.482Z,3.30
2023-02-26T22:50:43.847Z,2.60
2023-02-26T22:53:10.104Z,3.27
2023-02-26T22:55:36.361Z,2.70
2023-02-26T22:58:03.529Z,2.97
2023-02-26T23:00:30.648Z,3.17
2023-02-26T23:02:56.874Z,3.03
2023-02-26T23:05:23.292Z,3.53
2023-02-26T23:07:49.601Z,3.57
2023-02-26T23:10:16.708Z,3.37
2023-02-26T23:12:43.305Z,3.70
2023-02-26T23:15:09.818Z,3.23
2023-02-26T23:17:36.418Z,3.53
2023-02-26T23:20:03.666Z,3.23
2023-02-26T23:22:29.992Z,3.73
2023-02-26T23:24:56.248Z,3.80
2023-02-26T23:27:22.575Z,3.27
2023-02-26T23:29:48.812Z,4.00
2023-02-26T23:32:15.296Z,3.53
2023-02-26T23:34:41.634Z,4.00
2023-02-26T23:37:07.868Z,4.23
2023-02-26T23:39:34.164Z,4.03
2023-02-26T23:42:00.409Z,3.70
2023-02-26T23:44:26.699Z,4.37
2023-02-26T23:46:52.953Z,3.97
2023-02-26T23:49:19.365Z,3.53
2023-02-26T23:51:46.152Z,4.10
2023-02-26T23:54:13.146Z,3.80
2023-02-26T23:56:39.551Z,3.73
2023-02-26T23:59:06.879Z,3.87
